createdAt,value
2022-10-23T00:01:34.258Z,6.40
2022-10-23T00:04:07.123Z,5.43
2022-10-23T00:06:35.217Z,4.45
2022-10-23T00:09:05.026Z,6.18
2022-10-23T00:11:32.426Z,7.95
2022-10-23T00:14:03.085Z,4.50
2022-10-23T00:16:30.552Z,5.95
2022-10-23T00:18:58.032Z,6.20
2022-10-23T00:21:25.794Z,6.85
2022-10-23T00:23:53.228Z,5.13
2022-10-23T00:26:20.593Z,6.30
2022-10-23T00:28:50.965Z,5.03
2022-10-23T00:31:19.548Z,5.63
2022-10-23T00:33:47.455Z,6.93
2022-10-23T00:36:17.097Z,7.18
2022-10-23T00:38:44.742Z,3.00
2022-10-23T00:41:20.506Z,5.50
2022-10-23T00:44:17.317Z,5.15
2022-10-23T00:46:46.400Z,2.65
2022-10-23T00:49:14.445Z,6.50
2022-10-23T00:51:48.796Z,5.93
2022-10-23T00:54:23.925Z,2.45
2022-10-23T00:56:55.182Z,2.75
2022-10-23T00:59:22.905Z,3.35
2022-10-23T01:01:50.650Z,3.13
2022-10-23T01:04:18.195Z,8.63
2022-10-23T01:06:49.211Z,5.85
2022-10-23T01:09:23.910Z,4.80
2022-10-23T01:12:18.898Z,6.40
2022-10-23T01:15:05.221Z,2.67
2022-10-23T01:18:01.581Z,6.50
2022-10-23T01:20:45.757Z,4.47
2022-10-23T01:23:37.721Z,6.00
2022-10-23T01:26:38.740Z,8.23
2022-10-23T01:29:21.364Z,5.40
2022-10-23T01:31:56.444Z,4.75
2022-10-23T01:34:32.336Z,6.68
2022-10-23T01:37:04.214Z,6.00
2022-10-23T01:39:37.111Z,6.10
2022-10-23T01:42:13.095Z,5.53
2022-10-23T01:44:43.590Z,6.68
2022-10-23T01:47:14.022Z,7.20
2022-10-23T01:49:56.238Z,2.88
2022-10-23T01:52:23.559Z,9.18
2022-10-23T01:54:55.475Z,6.35
2022-10-23T01:57:25.821Z,8.32
2022-10-23T02:00:06.493Z,7.47
2022-10-23T02:02:39.640Z,6.35
2022-10-23T02:05:14.867Z,6.68
2022-10-23T02:07:42.467Z,4.45
2022-10-23T02:10:10.792Z,6.32
2022-10-23T02:13:11.584Z,4.97
2022-10-23T02:15:48.233Z,6.15
2022-10-23T02:18:34.005Z,5.20
2022-10-23T02:21:09.894Z,11.32
2022-10-23T02:23:45.985Z,6.28
2022-10-23T02:26:21.270Z,5.43
2022-10-23T02:28:55.857Z,5.70
2022-10-23T02:31:23.870Z,3.92
2022-10-23T02:33:51.340Z,4.22
2022-10-23T02:36:19.809Z,7.15
2022-10-23T02:38:47.491Z,3.67
2022-10-23T02:41:27.982Z,5.25
2022-10-23T02:44:02.362Z,5.03
2022-10-23T02:46:49.106Z,4.97
2022-10-23T02:49:30.155Z,6.60
2022-10-23T02:52:08.859Z,12.52
2022-10-23T02:54:51.292Z,5.80
2022-10-23T02:57:52.135Z,3.75
2022-10-23T03:00:22.049Z,5.80
2022-10-23T03:02:58.150Z,3.25
2022-10-23T03:05:34.201Z,5.35
2022-10-23T03:08:08.467Z,7.22
2022-10-23T03:10:36.750Z,3.60
2022-10-23T03:13:04.324Z,6.07
2022-10-23T03:15:39.075Z,11.70
2022-10-23T03:18:06.748Z,5.22
2022-10-23T03:20:34.107Z,6.68
2022-10-23T03:23:01.141Z,4.40
2022-10-23T03:25:28.773Z,5.20
2022-10-23T03:27:58.070Z,7.15
2022-10-23T03:30:25.144Z,4.82
2022-10-23T03:32:54.801Z,7.65
2022-10-23T03:35:21.918Z,7.15
2022-10-23T03:37:48.964Z,4.85
2022-10-23T03:40:16.440Z,7.53
2022-10-23T03:42:43.471Z,8.10
2022-10-23T03:45:13.692Z,6.85
2022-10-23T03:47:41.727Z,6.68
2022-10-23T03:50:09.959Z,4.93
2022-10-23T03:52:37.630Z,5.90
2022-10-23T03:55:05.201Z,4.63
2022-10-23T03:57:32.425Z,5.05
2022-10-23T03:59:59.539Z,5.45
2022-10-23T04:02:29.376Z,7.38
2022-10-23T04:04:56.548Z,7.68
2022-10-23T04:07:23.765Z,6.00
2022-10-23T04:09:50.944Z,10.38
2022-10-23T04:12:18.081Z,6.68
2022-10-23T04:14:45.169Z,6.60
2022-10-23T04:17:12.211Z,5.43
2022-10-23T04:19:39.355Z,10.07
2022-10-23T04:22:06.393Z,5.15
2022-10-23T04:24:34.072Z,6.10
2022-10-23T04:27:01.989Z,8.50
2022-10-23T04:29:32.473Z,7.30
2022-10-23T04:31:59.551Z,8.48
2022-10-23T04:34:26.645Z,4.07
2022-10-23T04:36:54.346Z,5.70
2022-10-23T04:39:21.435Z,3.60
2022-10-23T04:41:48.759Z,7.03
2022-10-23T04:44:15.967Z,5.15
2022-10-23T04:46:43.170Z,9.45
2022-10-23T04:49:10.509Z,9.23
2022-10-23T04:51:48.057Z,7.60
2022-10-23T04:54:38.548Z,2.88
2022-10-23T04:57:25.908Z,9.85
2022-10-23T05:00:07.373Z,5.68
2022-10-23T05:02:45.797Z,6.53
2022-10-23T05:05:15.294Z,6.32
2022-10-23T05:08:00.573Z,4.20
2022-10-23T05:10:39.494Z,3.55
2022-10-23T05:15:39.943Z,7.22
2022-10-23T05:18:18.583Z,9.50
2022-10-23T05:20:49.744Z,6.72
2022-10-23T05:23:20.976Z,6.53
2022-10-23T05:26:00.861Z,7.22
2022-10-23T05:28:27.894Z,2.65
2022-10-23T05:30:55.322Z,4.30
2022-10-23T05:33:27.223Z,10.52
2022-10-23T05:35:54.691Z,4.55
2022-10-23T05:38:22.844Z,7.05
2022-10-23T05:40:51.876Z,5.20
2022-10-23T05:43:20.309Z,6.20
2022-10-23T05:45:54.441Z,6.88
2022-10-23T05:48:44.831Z,4.85
2022-10-23T05:54:20.584Z,3.75
2022-10-23T05:57:13.852Z,6.05
2022-10-23T05:59:47.974Z,3.95
2022-10-23T06:02:40.778Z,5.28
2022-10-23T06:05:28.458Z,5.85
2022-10-23T06:08:18.592Z,7.25
2022-10-23T06:10:48.977Z,5.05
2022-10-23T06:13:16.381Z,2.72
2022-10-23T06:15:43.624Z,3.75
2022-10-23T06:18:16.963Z,2.80
2022-10-23T06:21:01.760Z,3.83
2022-10-23T06:23:35.121Z,4.88
2022-10-23T06:26:20.630Z,4.65
2022-10-23T06:28:58.019Z,6.25
2022-10-23T06:31:29.301Z,9.18
2022-10-23T06:33:59.426Z,4.97
2022-10-23T06:36:27.824Z,4.13
2022-10-23T06:39:03.061Z,4.32
2022-10-23T06:41:50.121Z,7.88
2022-10-23T06:44:37.244Z,2.88
2022-10-23T06:47:14.397Z,5.03
2022-10-23T06:50:01.936Z,2.92
2022-10-23T06:52:47.897Z,6.45
2022-10-23T06:55:18.579Z,3.33
2022-10-23T06:57:47.098Z,6.95
2022-10-23T07:00:14.867Z,7.35
2022-10-23T07:02:53.091Z,5.70
2022-10-23T07:05:21.162Z,7.68
2022-10-23T07:07:48.463Z,3.63
2022-10-23T07:10:22.376Z,5.40
2022-10-23T07:13:00.698Z,4.05
2022-10-23T07:15:40.567Z,2.33
2022-10-23T07:18:14.589Z,5.43
2022-10-23T07:21:00.689Z,4.63
2022-10-23T07:23:29.527Z,3.70
2022-10-23T07:26:02.306Z,4.70
2022-10-23T07:28:29.421Z,5.00
2022-10-23T07:31:00.713Z,4.10
2022-10-23T07:33:45.985Z,4.03
2022-10-23T07:36:18.216Z,2.83
2022-10-23T07:38:45.838Z,5.05
2022-10-23T07:41:13.212Z,2.60
2022-10-23T07:43:40.401Z,4.10
2022-10-23T07:46:10.964Z,7.07
2022-10-23T07:48:40.848Z,4.50
2022-10-23T07:51:13.431Z,4.25
2022-10-23T07:53:47.070Z,5.05
2022-10-23T07:56:34.256Z,3.95
2022-10-23T07:59:15.549Z,2.83
2022-10-23T08:01:51.570Z,3.97
2022-10-23T08:06:56.913Z,6.43
2022-10-23T08:09:25.907Z,4.68
2022-10-23T08:11:52.936Z,4.93
2022-10-23T08:14:22.976Z,2.83
2022-10-23T08:16:50.362Z,4.97
2022-10-23T08:19:17.712Z,4.30
2022-10-23T08:21:46.492Z,2.47
2022-10-23T08:24:14.702Z,3.13
2022-10-23T08:26:44.759Z,5.82
2022-10-23T08:29:13.367Z,5.25
2022-10-23T08:31:41.266Z,5.68
2022-10-23T08:34:16.363Z,4.95
2022-10-23T08:36:45.832Z,4.40
2022-10-23T08:39:13.612Z,6.25
2022-10-23T08:41:52.249Z,5.07
2022-10-23T08:44:46.038Z,4.18
2022-10-23T08:47:19.953Z,5.63
2022-10-23T08:50:19.305Z,4.30
2022-10-23T08:52:57.214Z,5.97
2022-10-23T08:55:33.580Z,5.00
2022-10-23T08:58:23.938Z,5.25
2022-10-23T09:00:52.422Z,3.78
2022-10-23T09:03:19.793Z,5.75
2022-10-23T09:05:58.232Z,12.00
2022-10-23T09:08:44.168Z,6.80
2022-10-23T09:11:26.023Z,5.05
2022-10-23T09:14:05.264Z,6.45
2022-10-23T09:16:50.911Z,4.05
2022-10-23T09:19:27.146Z,6.25
2022-10-23T09:21:55.946Z,3.30
2022-10-23T09:24:25.115Z,6.07
2022-10-23T09:26:54.319Z,4.72
2022-10-23T09:29:24.020Z,8.10
2022-10-23T09:32:01.758Z,4.75
2022-10-23T09:34:35.175Z,5.68
2022-10-23T09:37:30.087Z,2.85
2022-10-23T09:40:30.721Z,6.53
2022-10-23T09:43:04.399Z,3.97
2022-10-23T09:45:39.464Z,4.68
2022-10-23T09:48:24.596Z,4.50
2022-10-23T09:51:01.458Z,3.05
2022-10-23T09:53:40.344Z,2.85
2022-10-23T09:56:24.766Z,2.80
2022-10-23T09:59:05.998Z,7.10
2022-10-23T10:01:46.977Z,3.58
2022-10-23T10:04:41.775Z,2.42
2022-10-23T10:07:27.016Z,3.30
2022-10-23T10:09:57.704Z,4.20
2022-10-23T10:12:39.806Z,3.65
2022-10-23T10:15:36.697Z,4.05
2022-10-23T10:18:52.051Z,4.05
2022-10-23T10:21:50.736Z,2.20
2022-10-23T10:24:20.449Z,3.67
2022-10-23T10:27:05.486Z,2.35
2022-10-23T10:30:15.777Z,4.35
2022-10-23T10:32:57.983Z,3.80
2022-10-23T10:35:40.363Z,3.03
2022-10-23T10:38:16.437Z,2.35
2022-10-23T10:41:16.684Z,1.85
2022-10-23T10:44:02.403Z,3.33
2022-10-23T10:46:53.952Z,2.15
2022-10-23T10:49:46.470Z,3.20
2022-10-23T10:53:12.130Z,4.18
2022-10-23T10:55:41.765Z,3.10
2022-10-23T10:58:36.491Z,5.20
2022-10-23T11:01:20.035Z,4.25
2022-10-23T11:03:53.806Z,2.50
2022-10-23T11:06:24.481Z,2.83
2022-10-23T11:08:58.111Z,3.92
2022-10-23T11:11:49.260Z,3.90
2022-10-23T11:14:27.610Z,6.20
2022-10-23T11:17:12.717Z,3.97
2022-10-23T11:19:59.670Z,8.73
2022-10-23T11:22:50.278Z,3.65
2022-10-23T11:25:45.282Z,5.10
2022-10-23T11:28:38.522Z,2.40
2022-10-23T11:31:09.526Z,4.70
2022-10-23T11:34:09.270Z,6.97
2022-10-23T11:36:39.551Z,4.78
2022-10-23T11:39:29.650Z,8.73
2022-10-23T11:42:40.292Z,6.90
2022-10-23T11:45:40.906Z,6.55
2022-10-23T11:48:20.835Z,7.93
2022-10-23T11:50:47.990Z,3.33
2022-10-23T11:53:37.092Z,6.28
2022-10-23T11:56:13.180Z,7.13
2022-10-23T11:58:49.884Z,5.03
2022-10-23T12:01:45.576Z,8.48
2022-10-23T12:04:13.679Z,13.48
2022-10-23T12:07:12.440Z,4.90
2022-10-23T12:09:52.439Z,5.53
2022-10-23T12:12:55.907Z,6.35
2022-10-23T12:15:24.001Z,9.48
2022-10-23T12:17:58.656Z,7.97
2022-10-23T12:20:51.981Z,8.77
2022-10-23T12:23:43.252Z,8.45
2022-10-23T12:26:31.827Z,7.50
2022-10-23T12:29:51.925Z,4.10
2022-10-23T12:32:52.589Z,5.90
2022-10-23T12:35:48.987Z,7.70
2022-10-23T12:38:33.859Z,6.47
2022-10-23T12:45:20.355Z,9.43
2022-10-23T12:47:48.625Z,7.68
2022-10-23T12:50:21.092Z,10.02
2022-10-23T12:53:12.122Z,6.28
2022-10-23T12:58:35.045Z,4.20
2022-10-23T13:01:07.107Z,6.18
2022-10-23T13:03:35.067Z,9.75
2022-10-23T13:06:16.504Z,10.15
2022-10-23T13:08:47.966Z,4.07
2022-10-23T13:11:33.890Z,7.13
2022-10-23T13:14:15.051Z,3.47
2022-10-23T13:16:42.300Z,3.83
2022-10-23T13:19:24.539Z,3.60
2022-10-23T13:21:51.717Z,4.10
2022-10-23T13:24:21.958Z,4.80
2022-10-23T13:26:51.606Z,2.83
2022-10-23T13:29:27.882Z,4.15
2022-10-23T13:32:15.542Z,4.45
2022-10-23T13:35:04.169Z,3.60
2022-10-23T13:37:37.594Z,4.70
2022-10-23T13:40:07.615Z,5.78
2022-10-23T13:42:34.690Z,4.70
2022-10-23T13:45:01.879Z,5.50
2022-10-23T13:47:29.026Z,3.22
2022-10-23T13:49:56.117Z,4.32
2022-10-23T13:52:23.951Z,3.60
2022-10-23T13:54:51.098Z,4.43
2022-10-23T13:57:18.186Z,5.50
2022-10-23T13:59:45.289Z,6.38
2022-10-23T14:02:20.957Z,6.18
2022-10-23T14:04:49.765Z,5.50
2022-10-23T14:07:19.844Z,4.50
2022-10-23T14:09:47.430Z,5.88
2022-10-23T14:12:15.184Z,5.20
2022-10-23T14:14:42.328Z,3.47
2022-10-23T14:17:09.574Z,7.20
2022-10-23T14:22:08.831Z,4.85
2022-10-23T14:24:36.176Z,4.72
2022-10-23T14:27:03.303Z,5.03
2022-10-23T14:29:30.865Z,3.42
2022-10-23T14:31:57.924Z,5.95
2022-10-23T14:34:25.068Z,4.05
2022-10-23T14:37:07.249Z,4.72
2022-10-23T14:39:35.030Z,6.05
2022-10-23T14:42:02.275Z,6.93
2022-10-23T14:44:29.536Z,6.28
2022-10-23T14:46:56.819Z,6.10
2022-10-23T14:49:30.496Z,3.97
2022-10-23T14:52:01.852Z,6.53
2022-10-23T14:54:31.329Z,3.30
2022-10-23T14:57:04.605Z,5.20
2022-10-23T14:59:32.221Z,5.07
2022-10-23T15:01:59.447Z,4.20
2022-10-23T15:04:26.584Z,9.48
2022-10-23T15:06:54.027Z,5.75
2022-10-23T15:09:21.466Z,5.47
2022-10-23T15:11:48.915Z,3.25
2022-10-23T15:14:16.007Z,5.68
2022-10-23T15:16:43.180Z,3.35
2022-10-23T15:19:15.294Z,5.40
2022-10-23T15:21:46.103Z,8.95
2022-10-23T15:24:18.682Z,8.15
2022-10-23T15:26:45.866Z,4.97
2022-10-23T15:29:14.867Z,5.20
2022-10-23T15:31:45.062Z,5.68
2022-10-23T15:34:18.808Z,6.93
2022-10-23T15:36:47.825Z,5.32
2022-10-23T15:39:17.940Z,5.85
2022-10-23T15:41:45.154Z,5.43
2022-10-23T15:44:20.477Z,5.18
2022-10-23T15:46:48.588Z,4.47
2022-10-23T15:49:16.007Z,5.90
2022-10-23T15:51:44.081Z,7.40
2022-10-23T15:54:19.024Z,4.45
2022-10-23T15:56:58.505Z,6.85
2022-10-23T15:59:26.235Z,4.72
2022-10-23T16:01:53.826Z,9.02
2022-10-23T16:04:22.654Z,5.97
2022-10-23T16:06:49.853Z,7.72
2022-10-23T16:09:17.280Z,8.40
2022-10-23T16:11:44.807Z,3.22
2022-10-23T16:14:16.708Z,6.00
2022-10-23T16:16:43.838Z,3.35
2022-10-23T16:19:11.603Z,4.13
2022-10-23T16:21:38.771Z,1.50
2022-10-23T16:24:07.515Z,3.13
2022-10-23T16:26:35.682Z,3.42
2022-10-23T16:29:05.686Z,3.13
2022-10-23T16:31:33.814Z,4.00
2022-10-23T16:34:02.215Z,2.95
2022-10-23T16:36:29.878Z,1.25
2022-10-23T16:39:17.541Z,1.00
2022-10-23T16:42:03.984Z,2.38
2022-10-23T16:44:43.612Z,1.83
2022-10-23T16:47:10.878Z,3.03
2022-10-23T16:49:38.011Z,1.20
2022-10-23T16:52:08.257Z,4.05
2022-10-23T16:54:35.614Z,3.38
2022-10-23T16:57:02.848Z,1.58
2022-10-23T16:59:29.968Z,3.65
2022-10-23T17:01:57.170Z,2.70
2022-10-23T17:04:24.378Z,2.15
2022-10-23T17:06:51.450Z,1.83
2022-10-23T17:09:19.417Z,2.75
2022-10-23T17:11:46.617Z,1.60
2022-10-23T17:14:18.761Z,3.63
2022-10-23T17:16:48.937Z,2.38
2022-10-23T17:19:43.417Z,2.95
2022-10-23T17:22:10.675Z,8.15
2022-10-23T17:24:39.364Z,13.63
2022-10-23T17:27:07.211Z,15.98
2022-10-23T17:29:34.962Z,18.88
2022-10-23T17:32:02.249Z,18.30
2022-10-23T17:34:29.609Z,21.40
2022-10-23T17:36:56.745Z,16.50
2022-10-23T17:39:26.953Z,14.68
2022-10-23T17:41:55.064Z,7.43
2022-10-23T17:44:22.461Z,5.65
2022-10-23T17:46:54.327Z,4.32
2022-10-23T17:49:23.072Z,3.53
2022-10-23T17:51:56.210Z,4.25
2022-10-23T17:54:24.847Z,3.90
2022-10-23T17:56:52.068Z,7.85
2022-10-23T17:59:19.895Z,5.82
2022-10-23T18:01:48.369Z,5.43
2022-10-23T18:04:19.172Z,6.90
2022-10-23T18:06:52.503Z,6.82
2022-10-23T18:09:21.576Z,7.70
2022-10-23T18:11:49.720Z,12.07
2022-10-23T18:14:18.872Z,5.80
2022-10-23T18:16:46.627Z,9.40
2022-10-23T18:19:15.710Z,4.93
2022-10-23T18:21:42.947Z,5.63
2022-10-23T18:24:10.395Z,7.90
2022-10-23T18:26:39.322Z,11.73
2022-10-23T18:29:10.794Z,9.10
2022-10-23T18:31:38.407Z,10.63
2022-10-23T18:34:17.940Z,9.50
2022-10-23T18:36:45.725Z,9.82
2022-10-23T18:39:15.823Z,7.53
2022-10-23T18:41:44.810Z,8.77
2022-10-23T18:44:16.885Z,8.80
2022-10-23T18:46:44.816Z,9.48
2022-10-23T18:49:12.348Z,5.70
2022-10-23T18:51:39.738Z,10.27
2022-10-23T18:54:12.670Z,6.63
2022-10-23T18:56:41.989Z,9.25
2022-10-23T18:59:26.748Z,9.20
2022-10-23T19:01:53.973Z,10.60
2022-10-23T19:04:21.268Z,6.47
2022-10-23T19:06:50.221Z,11.10
2022-10-23T19:09:41.123Z,8.10
2022-10-23T19:12:20.189Z,7.38
2022-10-23T19:14:56.759Z,8.30
2022-10-23T19:17:29.732Z,8.23
2022-10-23T19:22:33.972Z,11.73
2022-10-23T19:25:11.324Z,4.65
2022-10-23T19:27:39.764Z,9.60
2022-10-23T19:30:13.547Z,9.85
2022-10-23T19:32:42.362Z,4.22
2022-10-23T19:35:12.030Z,6.93
2022-10-23T19:37:39.358Z,4.82
2022-10-23T19:40:08.229Z,5.95
2022-10-23T19:42:38.454Z,6.50
2022-10-23T19:45:06.925Z,6.57
2022-10-23T19:47:34.465Z,5.43
2022-10-23T19:50:01.649Z,5.88
2022-10-23T19:52:28.844Z,7.28
2022-10-23T19:54:55.940Z,11.30
2022-10-23T19:57:23.079Z,8.20
2022-10-23T19:59:53.307Z,6.22
2022-10-23T20:02:21.163Z,5.82
2022-10-23T20:04:54.397Z,8.30
2022-10-23T20:07:21.530Z,3.30
2022-10-23T20:09:48.904Z,5.28
2022-10-23T20:12:16.086Z,7.38
2022-10-23T20:14:43.325Z,4.40
2022-10-23T20:17:10.426Z,3.95
2022-10-23T20:19:37.585Z,5.07
2022-10-23T20:22:04.693Z,7.15
2022-10-23T20:24:31.945Z,6.97
2022-10-23T20:27:00.825Z,3.45
2022-10-23T20:29:27.997Z,4.90
2022-10-23T20:31:55.100Z,5.95
2022-10-23T20:34:22.357Z,11.80
2022-10-23T20:36:50.536Z,6.05
2022-10-23T20:39:20.859Z,6.10
2022-10-23T20:41:48.944Z,7.35
2022-10-23T20:46:50.724Z,3.80
2022-10-23T20:49:18.340Z,4.75
2022-10-23T20:51:54.111Z,7.65
2022-10-23T20:54:24.389Z,4.97
2022-10-23T20:56:51.580Z,15.80
2022-10-23T20:59:19.840Z,8.80
2022-10-23T21:01:50.743Z,5.82
2022-10-23T21:04:20.120Z,6.30
2022-10-23T21:07:09.078Z,5.97
2022-10-23T21:09:38.020Z,6.10
2022-10-23T21:12:06.639Z,9.15
2022-10-23T21:14:34.640Z,7.00
2022-10-23T21:17:01.777Z,7.13
2022-10-23T21:19:28.936Z,7.32
2022-10-23T21:21:56.050Z,9.80
2022-10-23T21:24:24.169Z,12.18
2022-10-23T21:26:51.364Z,12.30
2022-10-23T21:29:19.711Z,13.75
2022-10-23T21:31:59.636Z,9.40
2022-10-23T21:34:28.067Z,9.57
2022-10-23T21:39:48.196Z,5.85
2022-10-23T21:42:15.898Z,6.78
2022-10-23T21:44:43.348Z,10.13
2022-10-23T21:47:10.750Z,6.95
2022-10-23T21:49:37.954Z,5.32
2022-10-23T21:52:05.113Z,9.45
2022-10-23T21:54:32.420Z,10.38
2022-10-23T21:56:59.559Z,8.77
2022-10-23T21:59:35.496Z,4.93
2022-10-23T22:02:03.264Z,8.40
2022-10-23T22:04:30.432Z,6.43
2022-10-23T22:06:57.652Z,3.53
2022-10-23T22:09:26.723Z,3.08
2022-10-23T22:11:54.643Z,4.35
2022-10-23T22:14:22.995Z,4.93
2022-10-23T22:16:50.174Z,3.17
2022-10-23T22:19:18.225Z,9.15
2022-10-23T22:21:46.027Z,9.82
2022-10-23T22:24:13.392Z,11.82
2022-10-23T22:26:58.424Z,8.80
2022-10-23T22:29:29.958Z,7.25
2022-10-23T22:32:06.253Z,10.80
2022-10-23T22:34:51.865Z,12.07
2022-10-23T22:37:20.192Z,9.48
2022-10-23T22:39:51.289Z,9.82
2022-10-23T22:42:18.859Z,8.20
2022-10-23T22:44:46.062Z,14.27
2022-10-23T22:47:13.106Z,11.68
2022-10-23T22:49:43.426Z,18.58
2022-10-23T22:52:10.832Z,14.93
2022-10-23T22:54:38.133Z,13.75
2022-10-23T22:57:05.293Z,11.77
2022-10-23T22:59:32.473Z,11.60
2022-10-23T23:01:59.721Z,10.18
2022-10-23T23:04:43.115Z,17.35
2022-10-23T23:07:12.312Z,16.77
2022-10-23T23:09:41.749Z,7.55
2022-10-23T23:12:10.814Z,17.67
2022-10-23T23:14:38.702Z,14.73
2022-10-23T23:17:07.298Z,14.45
2022-10-23T23:19:34.728Z,16.75
2022-10-23T23:22:01.901Z,17.98
2022-10-23T23:24:29.152Z,17.80
2022-10-23T23:26:56.302Z,12.30
2022-10-23T23:29:23.425Z,13.00
2022-10-23T23:31:50.609Z,8.13
2022-10-23T23:34:17.823Z,8.48
2022-10-23T23:36:45.058Z,8.85
2022-10-23T23:39:12.370Z,8.32
2022-10-23T23:41:39.521Z,12.85
2022-10-23T23:44:08.403Z,11.15
2022-10-23T23:46:35.656Z,14.93
2022-10-23T23:49:02.812Z,15.80
2022-10-23T23:51:29.974Z,17.98
2022-10-23T23:53:57.164Z,13.70
2022-10-23T23:56:24.454Z,10.23
2022-10-23T23:58:51.601Z,9.50
